Time;durP1;ratioP1;P1;durP2;ratioP2;P2;SDS_P1;SDS_P2;PMS_P1;PMS_P2;Temp;Humidity;BMP_temperature;BMP_pressure;BME280_temperature;BME280_humidity;BME280_pressure;Samples;Min_cycle;Max_cycle;Signal;HPM_P1;HPM_P2
2023/03/24 00:02:18;;;;;;;0.00;0.00;;;13.50;99.90;;;;;;4972955;28;20191;-59
2023/03/24 00:04:48;;;;;;;0.00;0.00;;;13.50;99.90;;;;;;4972884;28;20254;-59
2023/03/24 00:07:15;;;;;;;0.00;0.00;;;13.40;99.90;;;;;;4972988;28;20188;-59
2023/03/24 00:09:41;;;;;;;0.00;0.00;;;13.40;99.90;;;;;;4972962;28;20196;-59
2023/03/24 00:12:12;;;;;;;0.03;0.03;;;13.40;99.90;;;;;;4972596;28;20211;-59
2023/03/24 00:14:39;;;;;;;0.00;0.00;;;13.40;99.90;;;;;;4972850;28;20544;-59
2023/03/24 00:17:08;;;;;;;0.00;0.00;;;13.40;99.90;;;;;;4972640;28;20801;-59
2023/03/24 00:19:37;;;;;;;0.32;0.30;;;13.30;99.90;;;;;;4972699;28;20279;-59
2023/03/24 00:22:07;;;;;;;0.00;0.00;;;13.30;99.90;;;;;;4972596;28;20535;-59
2023/03/24 00:24:33;;;;;;;0.00;0.00;;;13.30;99.90;;;;;;4973019;28;20227;-59
2023/03/24 00:26:59;;;;;;;0.00;0.00;;;13.30;99.90;;;;;;4972650;28;20231;-59
2023/03/24 00:29:25;;;;;;;0.00;0.00;;;13.30;99.90;;;;;;4972312;28;20184;-59
2023/03/24 00:31:51;;;;;;;0.00;0.00;;;13.30;99.90;;;;;;4972651;28;20195;-59
2023/03/24 00:34:20;;;;;;;0.00;0.00;;;13.30;99.90;;;;;;4954942;28;20190;-59
2023/03/24 00:36:47;;;;;;;0.00;0.00;;;13.30;99.90;;;;;;4972566;28;20207;-59
2023/03/24 00:39:14;;;;;;;0.00;0.00;;;13.30;99.90;;;;;;4972609;28;20288;-59
2023/03/24 00:41:43;;;;;;;0.00;0.00;;;13.30;99.90;;;;;;4972328;28;20255;-59
2023/03/24 00:44:16;;;;;;;0.00;0.00;;;13.30;99.90;;;;;;4971814;28;20716;-59
2023/03/24 00:46:55;;;;;;;0.00;0.00;;;13.30;99.90;;;;;;4970920;28;20670;-59
2023/03/24 00:49:40;;;;;;;0.00;0.00;;;13.30;99.90;;;;;;4970411;28;20187;-59
2023/03/24 00:52:10;;;;;;;0.00;0.00;;;13.30;99.90;;;;;;4971186;28;20673;-59
2023/03/24 00:54:38;;;;;;;0.00;0.00;;;13.30;99.90;;;;;;4971595;28;20180;-59
2023/03/24 00:57:11;;;;;;;0.00;0.00;;;13.30;99.90;;;;;;4971663;28;20270;-59
2023/03/24 00:59:41;;;;;;;0.00;0.00;;;13.20;99.90;;;;;;4960514;28;20507;-59
2023/03/24 01:02:12;;;;;;;0.00;0.00;;;13.20;99.90;;;;;;4979407;28;20178;-59
2023/03/24 01:04:39;;;;;;;0.00;0.00;;;13.20;99.90;;;;;;4990595;28;20261;-59
2023/03/24 01:07:06;;;;;;;0.00;0.00;;;13.20;99.90;;;;;;4972203;28;20279;-59
2023/03/24 01:09:35;;;;;;;0.00;0.00;;;13.20;99.90;;;;;;4953419;28;20192;-59
2023/03/24 01:12:02;;;;;;;0.00;0.00;;;13.20;99.90;;;;;;4952947;28;20177;-59
2023/03/24 01:14:28;;;;;;;0.00;0.00;;;13.30;99.90;;;;;;4980191;28;20274;-59
2023/03/24 01:16:54;;;;;;;0.00;0.00;;;13.40;99.90;;;;;;4982293;28;20270;-59
2023/03/24 01:19:20;;;;;;;0.00;0.00;;;13.50;99.90;;;;;;4972004;28;20826;-59
2023/03/24 01:21:47;;;;;;;0.08;0.08;;;13.60;99.90;;;;;;4972263;28;20184;-60
2023/03/24 01:24:13;;;;;;;0.00;0.00;;;13.60;99.90;;;;;;4972359;28;20219;-59
2023/03/24 01:26:38;;;;;;;0.00;0.00;;;13.70;99.90;;;;;;4972170;28;20263;-59
2023/03/24 01:29:04;;;;;;;0.10;0.10;;;13.70;99.90;;;;;;4972353;28;20218;-59
2023/03/24 01:31:30;;;;;;;0.00;0.00;;;13.80;99.90;;;;;;4972083;28;20683;-60
2023/03/24 01:33:55;;;;;;;0.00;0.00;;;13.90;99.90;;;;;;4972213;28;20207;-59
2023/03/24 01:36:21;;;;;;;0.00;0.00;;;13.90;99.90;;;;;;4972138;28;20250;-59
2023/03/24 01:38:47;;;;;;;0.00;0.00;;;14.00;99.90;;;;;;4972009;28;20195;-59
2023/03/24 01:41:12;;;;;;;0.00;0.00;;;14.00;99.90;;;;;;4972195;28;20648;-59
2023/03/24 01:43:38;;;;;;;0.00;0.00;;;14.00;99.90;;;;;;4971884;28;20211;-59
2023/03/24 01:46:16;;;;;;;0.00;0.00;;;14.00;99.90;;;;;;4972011;28;20176;-59
2023/03/24 01:48:54;;;;;;;0.00;0.00;;;14.00;99.90;;;;;;4971853;28;20188;-59
2023/03/24 01:51:37;;;;;;;0.00;0.00;;;14.00;99.90;;;;;;4977698;28;20184;-59
2023/03/24 01:54:30;;;;;;;0.00;0.00;;;14.00;99.90;;;;;;4971980;28;20180;-59
2023/03/24 01:57:05;;;;;;;0.00;0.00;;;14.00;99.90;;;;;;4953717;28;20185;-59
2023/03/24 01:59:34;;;;;;;0.00;0.00;;;13.90;99.90;;;;;;4975649;28;20669;-59
2023/03/24 02:02:03;;;;;;;0.00;0.00;;;14.00;99.90;;;;;;4975664;28;20184;-59
2023/03/24 02:04:41;;;;;;;0.00;0.00;;;14.00;99.90;;;;;;4975598;28;20686;-59
2023/03/24 02:07:52;;;;;;;0.00;0.00;;;14.00;99.90;;;;;;4975536;28;20551;-59
2023/03/24 02:10:22;;;;;;;0.10;0.10;;;14.00;99.90;;;;;;4975516;28;20267;-60
2023/03/24 02:12:47;;;;;;;0.00;0.00;;;14.00;99.90;;;;;;4958316;28;20184;-59
2023/03/24 02:15:15;;;;;;;0.00;0.00;;;14.00;99.90;;;;;;4975392;28;20187;-59
2023/03/24 02:18:01;;;;;;;0.00;0.00;;;14.10;99.90;;;;;;4975224;28;20259;-59
2023/03/24 02:20:57;;;;;;;0.00;0.00;;;14.10;99.90;;;;;;4957823;28;20199;-59
2023/03/24 02:23:31;;;;;;;0.00;0.00;;;14.10;99.90;;;;;;4975426;28;20591;-59
2023/03/24 02:26:33;;;;;;;0.00;0.00;;;14.10;99.90;;;;;;4975649;28;20587;-59
2023/03/24 02:29:14;;;;;;;0.00;0.00;;;14.10;99.90;;;;;;4975372;28;20757;-59
2023/03/24 02:32:22;;;;;;;0.00;0.00;;;14.10;99.90;;;;;;4975398;28;20211;-59
2023/03/24 02:35:20;;;;;;;0.00;0.00;;;14.20;99.90;;;;;;4959087;28;20689;-59
2023/03/24 02:38:00;;;;;;;0.00;0.00;;;14.20;99.90;;;;;;4975156;28;20177;-59
2023/03/24 02:40:43;;;;;;;0.00;0.00;;;14.20;99.90;;;;;;4975288;28;20254;-59
2023/03/24 02:43:44;;;;;;;0.00;0.00;;;14.10;99.90;;;;;;4974767;28;20215;-59
2023/03/24 02:46:38;;;;;;;0.00;0.00;;;14.10;99.90;;;;;;4942641;28;20248;-60
2023/03/24 02:49:09;;;;;;;0.00;0.00;;;14.10;99.90;;;;;;4969374;28;20192;-59
2023/03/24 02:51:55;;;;;;;0.00;0.00;;;14.10;99.90;;;;;;4983040;28;20231;-59
2023/03/24 02:54:41;;;;;;;0.00;0.00;;;14.10;99.90;;;;;;4974574;28;20197;-59
2023/03/24 02:57:27;;;;;;;0.00;0.00;;;14.10;99.90;;;;;;4974476;28;20575;-59
2023/03/24 02:59:59;;;;;;;0.00;0.00;;;14.00;99.90;;;;;;4974547;28;20165;-59
2023/03/24 03:02:29;;;;;;;0.00;0.00;;;14.00;99.90;;;;;;4974351;28;20326;-59
2023/03/24 03:05:38;;;;;;;0.00;0.00;;;14.00;99.90;;;;;;4974503;28;21262;-59
2023/03/24 03:08:08;;;;;;;0.00;0.00;;;14.00;99.90;;;;;;4972822;28;20180;-59
2023/03/24 03:10:37;;;;;;;0.00;0.00;;;14.00;99.90;;;;;;4973096;28;20210;-59
2023/03/24 03:13:11;;;;;;;0.00;0.00;;;13.90;99.90;;;;;;4974177;28;20185;-59
2023/03/24 03:15:43;;;;;;;0.00;0.00;;;13.90;99.90;;;;;;4974942;28;20183;-59
2023/03/24 03:18:16;;;;;;;0.00;0.00;;;13.90;99.90;;;;;;4974261;28;20223;-59
2023/03/24 03:20:49;;;;;;;0.00;0.00;;;14.00;99.90;;;;;;4974577;28;20184;-59
2023/03/24 03:23:17;;;;;;;0.00;0.00;;;14.00;99.90;;;;;;4974181;28;20299;-59
2023/03/24 03:25:49;;;;;;;0.00;0.00;;;14.00;99.90;;;;;;4974288;28;20330;-59
2023/03/24 03:28:22;;;;;;;0.00;0.00;;;14.00;99.90;;;;;;4974195;28;20176;-59
2023/03/24 03:30:54;;;;;;;0.00;0.00;;;14.00;99.90;;;;;;4974138;28;20195;-59
2023/03/24 03:33:39;;;;;;;0.00;0.00;;;14.00;99.90;;;;;;4973928;28;20505;-59
2023/03/24 03:36:17;;;;;;;0.00;0.00;;;14.00;99.90;;;;;;4974285;28;20254;-59
2023/03/24 03:38:59;;;;;;;0.00;0.00;;;14.00;99.90;;;;;;4973954;28;20180;-59
2023/03/24 03:41:25;;;;;;;0.00;0.00;;;14.00;99.90;;;;;;4974274;28;20180;-58
2023/03/24 03:43:51;;;;;;;0.00;0.00;;;14.00;99.90;;;;;;4973669;28;20218;-59
2023/03/24 03:46:17;;;;;;;0.00;0.00;;;13.90;99.90;;;;;;4974042;28;20176;-61
2023/03/24 03:48:43;;;;;;;0.00;0.00;;;13.90;99.90;;;;;;4973541;28;20192;-59
2023/03/24 03:51:10;;;;;;;0.08;0.08;;;13.90;99.90;;;;;;4983380;28;20639;-59
2023/03/24 03:53:46;;;;;;;0.00;0.00;;;13.80;99.90;;;;;;4977970;28;20192;-59
2023/03/24 03:56:17;;;;;;;0.00;0.00;;;13.80;99.90;;;;;;4973638;28;20258;-59
2023/03/24 03:58:45;;;;;;;0.47;0.13;;;13.80;99.90;;;;;;4973289;28;20278;-59
2023/03/24 04:01:15;;;;;;;0.00;0.00;;;13.80;99.90;;;;;;4973664;28;20207;-59
2023/03/24 04:03:49;;;;;;;0.00;0.00;;;13.70;99.90;;;;;;4972822;28;20224;-59
2023/03/24 04:06:35;;;;;;;0.00;0.00;;;13.70;99.90;;;;;;4973450;28;20642;-59
2023/03/24 04:09:25;;;;;;;0.00;0.00;;;13.70;99.90;;;;;;4973085;28;20279;-59
2023/03/24 04:11:50;;;;;;;0.10;0.10;;;13.60;99.90;;;;;;4954154;28;20185;-59
2023/03/24 04:14:19;;;;;;;0.00;0.00;;;13.60;99.90;;;;;;4971724;28;20674;-59
2023/03/24 04:16:56;;;;;;;0.15;0.15;;;13.60;99.90;;;;;;4973277;28;20179;-59
2023/03/24 04:19:45;;;;;;;0.00;0.00;;;13.60;99.90;;;;;;4972533;28;20234;-59
2023/03/24 04:22:43;;;;;;;0.00;0.00;;;13.60;99.90;;;;;;4973111;28;20188;-59
2023/03/24 04:25:48;;;;;;;0.00;0.00;;;13.60;99.90;;;;;;4972745;28;20188;-59
2023/03/24 04:28:46;;;;;;;0.00;0.00;;;13.70;99.90;;;;;;4969790;28;20187;-59
2023/03/24 04:31:38;;;;;;;0.00;0.00;;;13.70;99.90;;;;;;5068530;28;20623;-59
2023/03/24 04:34:12;;;;;;;0.00;0.00;;;13.70;99.90;;;;;;5068305;28;20212;-59
2023/03/24 04:36:53;;;;;;;0.00;0.00;;;13.60;99.90;;;;;;5068634;28;20223;-57
2023/03/24 04:39:26;;;;;;;0.00;0.00;;;13.50;99.90;;;;;;5068470;28;20187;-58
2023/03/24 04:41:55;;;;;;;0.00;0.00;;;13.50;99.90;;;;;;5068476;28;20188;-57
2023/03/24 04:44:21;;;;;;;0.00;0.00;;;13.50;99.90;;;;;;5068090;28;20607;-58
2023/03/24 04:46:51;;;;;;;0.00;0.00;;;13.50;99.90;;;;;;5068254;28;20173;-59
2023/03/24 04:49:18;;;;;;;0.00;0.00;;;13.40;99.90;;;;;;5068133;28;20208;-61
2023/03/24 04:51:44;;;;;;;0.00;0.00;;;13.40;99.90;;;;;;5067978;28;20235;-58
2023/03/24 04:54:10;;;;;;;0.00;0.00;;;13.40;99.90;;;;;;5068779;28;20319;-59
2023/03/24 04:56:41;;;;;;;0.03;0.03;;;13.30;99.90;;;;;;5068083;28;20177;-57
2023/03/24 04:59:07;;;;;;;0.00;0.00;;;13.20;99.90;;;;;;5050674;28;20173;-58
2023/03/24 05:01:36;;;;;;;0.00;0.00;;;13.20;99.90;;;;;;5047883;28;20252;-57
2023/03/24 05:04:03;;;;;;;0.00;0.00;;;13.20;99.90;;;;;;5047638;28;20276;-58
2023/03/24 05:06:28;;;;;;;0.00;0.00;;;13.10;99.90;;;;;;5047765;28;20192;-58
2023/03/24 05:08:56;;;;;;;0.00;0.00;;;13.10;99.90;;;;;;5047794;28;20173;-58
2023/03/24 05:11:22;;;;;;;0.00;0.00;;;13.00;99.90;;;;;;5050885;28;20204;-58
2023/03/24 05:13:47;;;;;;;0.00;0.00;;;13.00;99.90;;;;;;5066640;28;20195;-58
2023/03/24 05:16:13;;;;;;;0.00;0.00;;;12.90;99.90;;;;;;5067115;28;20177;-57
2023/03/24 05:18:39;;;;;;;0.00;0.00;;;12.80;99.90;;;;;;5066787;28;20177;-57
2023/03/24 05:21:05;;;;;;;0.00;0.00;;;12.70;99.90;;;;;;5067321;28;20188;-58
2023/03/24 05:23:31;;;;;;;0.00;0.00;;;12.70;99.90;;;;;;5067257;28;20668;-58
2023/03/24 05:25:56;;;;;;;0.00;0.00;;;12.60;99.90;;;;;;5067298;28;20184;-58
2023/03/24 05:28:22;;;;;;;0.00;0.00;;;12.60;99.90;;;;;;5067154;28;20184;-58
2023/03/24 05:30:48;;;;;;;0.00;0.00;;;12.60;99.90;;;;;;5066934;28;20241;-58
2023/03/24 05:33:13;;;;;;;0.00;0.00;;;12.60;99.90;;;;;;5066967;28;20192;-57
2023/03/24 05:35:39;;;;;;;0.00;0.00;;;12.50;99.90;;;;;;5066941;28;20185;-58
2023/03/24 05:38:04;;;;;;;0.00;0.00;;;12.50;99.90;;;;;;5067138;28;20177;-58
2023/03/24 05:40:30;;;;;;;0.00;0.00;;;12.50;99.90;;;;;;5067081;28;20169;-58
2023/03/24 05:42:55;;;;;;;0.00;0.00;;;12.40;99.90;;;;;;5053357;28;20227;-58
2023/03/24 05:45:21;;;;;;;0.00;0.00;;;12.40;99.90;;;;;;5053765;28;20265;-58
2023/03/24 05:47:47;;;;;;;0.00;0.00;;;12.30;99.90;;;;;;5054661;28;20663;-58
2023/03/24 05:50:13;;;;;;;0.00;0.00;;;12.30;99.90;;;;;;5073459;28;20227;-58
2023/03/24 05:52:40;;;;;;;0.00;0.00;;;12.30;99.90;;;;;;5073302;28;20199;-58
2023/03/24 05:55:06;;;;;;;0.00;0.00;;;12.30;99.90;;;;;;5073155;28;20183;-58
2023/03/24 05:57:33;;;;;;;0.00;0.00;;;12.30;99.90;;;;;;5068066;28;20546;-58
2023/03/24 05:59:59;;;;;;;0.00;0.00;;;12.30;99.90;;;;;;5053351;28;20169;-58
2023/03/24 06:02:24;;;;;;;0.35;0.10;;;12.30;99.90;;;;;;5053564;28;20512;-58
2023/03/24 06:04:50;;;;;;;0.00;0.00;;;12.30;99.90;;;;;;5053493;28;20184;-58
2023/03/24 06:07:16;;;;;;;0.00;0.00;;;12.30;99.90;;;;;;5053296;28;20189;-58
2023/03/24 06:09:45;;;;;;;0.00;0.00;;;12.30;99.90;;;;;;5053281;28;20201;-58
2023/03/24 06:12:11;;;;;;;0.10;0.10;;;12.40;99.90;;;;;;5053249;28;20181;-58
2023/03/24 06:14:37;;;;;;;0.10;0.10;;;12.40;99.90;;;;;;5053301;28;20173;-58
2023/03/24 06:17:03;;;;;;;0.00;0.00;;;12.40;99.90;;;;;;5053291;28;20640;-58
2023/03/24 06:19:31;;;;;;;0.00;0.00;;;12.40;99.90;;;;;;5053374;28;20181;-58
2023/03/24 06:21:59;;;;;;;0.05;0.05;;;12.50;99.90;;;;;;5053127;28;20196;-58
2023/03/24 06:24:25;;;;;;;0.00;0.00;;;12.60;99.90;;;;;;5053125;28;20181;-58
2023/03/24 06:26:50;;;;;;;0.00;0.00;;;12.60;99.90;;;;;;5053084;28;20824;-58
2023/03/24 06:29:19;;;;;;;0.05;0.05;;;12.60;99.90;;;;;;5052753;28;20189;-58
2023/03/24 06:31:47;;;;;;;0.00;0.00;;;12.70;99.90;;;;;;5052858;28;20184;-58
2023/03/24 06:34:12;;;;;;;0.00;0.00;;;12.80;99.90;;;;;;5052704;28;20196;-58
2023/03/24 06:36:38;;;;;;;0.00;0.00;;;12.80;99.90;;;;;;5051648;28;20532;-58
2023/03/24 06:39:04;;;;;;;0.00;0.00;;;12.90;99.90;;;;;;5052533;28;20649;-58
2023/03/24 06:41:30;;;;;;;0.00;0.00;;;12.90;99.90;;;;;;5052599;28;20617;-58
2023/03/24 06:43:56;;;;;;;0.00;0.00;;;12.90;99.90;;;;;;5052658;28;20230;-58
2023/03/24 06:46:22;;;;;;;0.00;0.00;;;13.00;99.90;;;;;;5052680;28;20173;-58
2023/03/24 06:48:48;;;;;;;0.00;0.00;;;13.10;99.90;;;;;;5052679;28;20180;-58
2023/03/24 06:51:13;;;;;;;0.00;0.00;;;13.10;99.90;;;;;;5052548;28;20217;-58
2023/03/24 06:53:40;;;;;;;0.00;0.00;;;13.10;99.90;;;;;;5051703;28;20189;-58
2023/03/24 06:56:06;;;;;;;0.00;0.00;;;13.10;99.90;;;;;;5052286;28;20188;-58
2023/03/24 06:58:32;;;;;;;0.00;0.00;;;13.00;99.90;;;;;;5052318;28;20212;-58
2023/03/24 07:01:00;;;;;;;0.00;0.00;;;13.00;99.90;;;;;;5052200;28;20644;-58
2023/03/24 07:03:25;;;;;;;0.08;0.08;;;13.00;99.90;;;;;;5052072;28;20240;-58
2023/03/24 07:05:51;;;;;;;0.00;0.00;;;12.90;99.90;;;;;;5052191;28;20260;-58
2023/03/24 07:08:16;;;;;;;0.00;0.00;;;12.90;99.90;;;;;;5052153;28;20182;-58
2023/03/24 07:10:42;;;;;;;0.00;0.00;;;12.90;99.90;;;;;;5052295;28;20223;-58
2023/03/24 07:13:08;;;;;;;0.10;0.10;;;12.90;99.90;;;;;;5052059;28;20173;-58
2023/03/24 07:15:34;;;;;;;0.00;0.00;;;12.90;99.90;;;;;;5052191;28;20207;-57
2023/03/24 07:18:00;;;;;;;0.00;0.00;;;12.90;99.90;;;;;;5052071;28;20223;-57
2023/03/24 07:20:25;;;;;;;0.00;0.00;;;12.90;99.90;;;;;;5051969;28;20599;-57
2023/03/24 07:22:55;;;;;;;0.00;0.00;;;12.90;99.90;;;;;;5052013;28;20616;-57
2023/03/24 07:25:21;;;;;;;0.00;0.00;;;12.90;99.90;;;;;;5051996;28;20184;-59
2023/03/24 07:27:47;;;;;;;0.00;0.00;;;12.90;99.90;;;;;;5051584;28;20170;-59
2023/03/24 07:30:13;;;;;;;0.00;0.00;;;12.90;99.90;;;;;;5051463;28;20236;-59
2023/03/24 07:32:39;;;;;;;0.00;0.00;;;13.00;99.90;;;;;;5051695;28;20185;-59
2023/03/24 07:35:10;;;;;;;0.00;0.00;;;13.00;99.90;;;;;;5051532;28;20550;-59
2023/03/24 07:37:36;;;;;;;0.00;0.00;;;13.00;99.90;;;;;;5051807;28;20177;-59
2023/03/24 07:40:09;;;;;;;0.00;0.00;;;13.00;99.90;;;;;;5051515;28;20227;-59
2023/03/24 07:42:35;;;;;;;0.00;0.00;;;12.90;99.90;;;;;;5051629;28;20633;-59
2023/03/24 07:45:01;;;;;;;0.00;0.00;;;12.90;99.90;;;;;;5051494;28;20227;-59
2023/03/24 07:47:26;;;;;;;0.00;0.00;;;13.00;99.90;;;;;;5051436;28;20235;-58
2023/03/24 07:49:52;;;;;;;0.00;0.00;;;12.90;99.90;;;;;;5051512;28;20221;-58
2023/03/24 07:52:17;;;;;;;0.00;0.00;;;12.90;99.90;;;;;;5051376;28;20174;-56
2023/03/24 07:54:43;;;;;;;0.00;0.00;;;13.00;99.90;;;;;;5051408;28;20640;-56
2023/03/24 07:57:08;;;;;;;0.00;0.00;;;13.00;99.90;;;;;;5050247;28;20186;-58
2023/03/24 07:59:35;;;;;;;0.00;0.00;;;13.00;99.90;;;;;;5031525;28;20273;-58
2023/03/24 08:02:00;;;;;;;0.00;0.00;;;13.00;99.90;;;;;;5031217;28;20214;-58
2023/03/24 08:04:27;;;;;;;0.00;0.00;;;13.00;99.90;;;;;;5031066;28;20213;-58
2023/03/24 08:06:53;;;;;;;0.00;0.00;;;13.10;99.90;;;;;;5031473;28;20177;-58
2023/03/24 08:09:18;;;;;;;0.00;0.00;;;13.10;99.90;;;;;;5031279;28;20210;-58
2023/03/24 08:11:44;;;;;;;0.00;0.00;;;13.20;99.90;;;;;;5031147;28;20702;-58
2023/03/24 08:14:10;;;;;;;0.00;0.00;;;13.30;99.90;;;;;;5031215;28;20699;-58
2023/03/24 08:16:37;;;;;;;0.10;0.10;;;13.40;99.90;;;;;;5031358;28;20265;-58
2023/03/24 08:19:03;;;;;;;0.00;0.00;;;13.40;99.90;;;;;;5030933;28;20178;-58
2023/03/24 08:21:29;;;;;;;0.00;0.00;;;13.50;99.90;;;;;;5031125;28;20595;-58
2023/03/24 08:23:55;;;;;;;0.00;0.00;;;13.50;99.90;;;;;;5030992;28;20174;-58
2023/03/24 08:26:21;;;;;;;0.00;0.00;;;13.60;99.90;;;;;;5031070;28;20186;-58
2023/03/24 08:28:48;;;;;;;0.00;0.00;;;13.60;99.90;;;;;;5031000;28;20340;-58
2023/03/24 08:31:13;;;;;;;0.00;0.00;;;13.70;99.90;;;;;;5030753;28;20238;-58
2023/03/24 08:33:39;;;;;;;0.00;0.00;;;13.80;99.90;;;;;;5031057;28;20174;-58
2023/03/24 08:36:05;;;;;;;0.00;0.00;;;13.80;99.90;;;;;;5030786;28;20261;-58
2023/03/24 08:38:31;;;;;;;0.00;0.00;;;13.80;99.90;;;;;;5031357;28;20521;-58
2023/03/24 08:41:00;;;;;;;0.00;0.00;;;13.70;99.90;;;;;;5030945;28;20178;-58
2023/03/24 08:43:30;;;;;;;0.00;0.00;;;13.70;99.90;;;;;;5030970;28;20212;-57
2023/03/24 08:45:57;;;;;;;0.00;0.00;;;13.70;99.90;;;;;;5030820;28;20174;-58
2023/03/24 08:48:24;;;;;;;0.00;0.00;;;13.70;99.90;;;;;;5030868;28;20188;-58
2023/03/24 08:50:49;;;;;;;0.00;0.00;;;13.80;99.90;;;;;;5030820;28;20245;-58
2023/03/24 08:53:15;;;;;;;0.00;0.00;;;13.80;99.90;;;;;;5030687;28;20268;-57
2023/03/24 08:55:42;;;;;;;0.00;0.00;;;13.80;99.90;;;;;;5030796;28;20178;-59
2023/03/24 08:58:13;;;;;;;0.00;0.00;;;13.80;99.90;;;;;;5040838;28;20213;-58
2023/03/24 09:00:39;;;;;;;0.00;0.00;;;13.80;99.90;;;;;;5050728;28;20250;-58
2023/03/24 09:03:05;;;;;;;0.00;0.00;;;13.80;99.90;;;;;;5050353;28;20173;-58
2023/03/24 09:05:31;;;;;;;0.00;0.00;;;13.80;99.90;;;;;;5050541;28;20178;-58
2023/03/24 09:07:59;;;;;;;0.00;0.00;;;13.80;99.90;;;;;;5050512;28;20261;-58
2023/03/24 09:10:25;;;;;;;0.00;0.00;;;13.90;99.90;;;;;;5050292;28;20217;-58
2023/03/24 09:12:51;;;;;;;0.00;0.00;;;13.90;99.90;;;;;;5050484;28;20170;-58
2023/03/24 09:15:17;;;;;;;0.00;0.00;;;13.90;99.90;;;;;;5050548;28;20520;-58
2023/03/24 09:17:43;;;;;;;0.00;0.00;;;13.90;99.90;;;;;;5053287;28;20252;-58
2023/03/24 09:20:13;;;;;;;0.00;0.00;;;14.00;99.90;;;;;;5054341;28;20173;-58
2023/03/24 09:22:40;;;;;;;0.00;0.00;;;14.00;99.90;;;;;;5054420;28;20563;-58
2023/03/24 09:25:07;;;;;;;0.00;0.00;;;14.00;99.90;;;;;;5054206;28;20185;-58
2023/03/24 09:27:33;;;;;;;0.00;0.00;;;14.00;99.90;;;;;;5054402;28;20172;-58
2023/03/24 09:29:58;;;;;;;0.00;0.00;;;13.90;99.90;;;;;;5053904;28;20233;-58
2023/03/24 09:32:24;;;;;;;0.00;0.00;;;13.90;99.90;;;;;;5054067;28;20231;-58
2023/03/24 09:34:50;;;;;;;0.00;0.00;;;13.90;99.90;;;;;;5054106;28;20651;-58
2023/03/24 09:37:15;;;;;;;0.00;0.00;;;14.00;99.90;;;;;;5053970;28;20182;-58
2023/03/24 09:39:41;;;;;;;0.00;0.00;;;14.00;99.90;;;;;;5054147;28;20201;-58
2023/03/24 09:42:20;;;;;;;0.00;0.00;;;14.10;99.90;;;;;;5053885;28;20173;-58
2023/03/24 09:44:51;;;;;;;0.00;0.00;;;14.10;99.90;;;;;;5053940;28;20177;-58
2023/03/24 09:47:40;;;;;;;0.05;0.05;;;14.20;99.90;;;;;;5053910;28;20244;-58
2023/03/24 09:50:25;;;;;;;0.00;0.00;;;14.20;99.90;;;;;;5053617;28;20213;-58
2023/03/24 09:52:57;;;;;;;0.00;0.00;;;14.30;99.90;;;;;;5053876;28;20184;-58
2023/03/24 09:55:26;;;;;;;0.00;0.00;;;14.40;99.90;;;;;;5053703;28;20268;-57
2023/03/24 09:58:03;;;;;;;0.00;0.00;;;14.50;99.90;;;;;;5053683;28;20177;-58
2023/03/24 10:00:33;;;;;;;0.00;0.00;;;14.60;99.90;;;;;;5053802;28;20180;-58
2023/03/24 10:03:12;;;;;;;0.10;0.10;;;14.70;99.90;;;;;;5053738;28;20253;-57
2023/03/24 10:05:43;;;;;;;0.13;0.13;;;14.80;99.90;;;;;;5053677;28;20240;-58
2023/03/24 10:08:34;;;;;;;0.00;0.00;;;14.90;99.90;;;;;;5053675;28;20165;-58
2023/03/24 10:11:14;;;;;;;0.03;0.03;;;15.10;99.90;;;;;;5053384;28;20229;-58
2023/03/24 10:13:51;;;;;;;0.10;0.10;;;15.20;99.90;;;;;;5053546;28;20323;-58
2023/03/24 10:16:35;;;;;;;0.10;0.10;;;15.10;99.90;;;;;;5053450;28;20182;-58
2023/03/24 10:19:17;;;;;;;0.00;0.00;;;15.10;99.90;;;;;;5053389;28;20185;-58
2023/03/24 10:21:55;;;;;;;0.00;0.00;;;15.10;99.90;;;;;;5053330;28;20209;-58
2023/03/24 10:24:35;;;;;;;0.00;0.00;;;15.10;99.90;;;;;;5053235;28;20181;-58
2023/03/24 10:27:10;;;;;;;0.00;0.00;;;15.10;99.90;;;;;;5053067;28;20256;-58
2023/03/24 10:29:37;;;;;;;0.00;0.00;;;15.10;99.90;;;;;;5052936;28;20280;-58
2023/03/24 10:32:10;;;;;;;0.00;0.00;;;15.10;99.90;;;;;;5053138;28;20256;-58
2023/03/24 10:34:37;;;;;;;0.00;0.00;;;15.10;99.90;;;;;;5053119;28;20178;-58
2023/03/24 10:37:03;;;;;;;0.00;0.00;;;15.00;99.90;;;;;;5052828;28;20185;-58
2023/03/24 10:39:30;;;;;;;0.00;0.00;;;15.00;99.90;;;;;;5052994;28;20319;-58
2023/03/24 10:41:58;;;;;;;0.00;0.00;;;15.00;99.90;;;;;;5052847;28;20624;-58
2023/03/24 10:44:24;;;;;;;0.00;0.00;;;15.00;99.90;;;;;;5052756;28;20576;-58
2023/03/24 10:46:54;;;;;;;0.00;0.00;;;15.10;99.90;;;;;;5052762;28;20628;-58
2023/03/24 10:49:21;;;;;;;0.00;0.00;;;15.20;99.90;;;;;;5052654;28;20178;-58
2023/03/24 10:51:50;;;;;;;0.00;0.00;;;15.20;99.90;;;;;;5052598;28;20173;-58
2023/03/24 10:54:19;;;;;;;0.00;0.00;;;15.10;99.90;;;;;;5052478;28;20193;-58
2023/03/24 10:57:09;;;;;;;0.00;0.00;;;15.10;99.90;;;;;;5051260;28;20205;-58
2023/03/24 10:59:58;;;;;;;0.00;0.00;;;15.00;99.90;;;;;;5052303;28;20196;-58
2023/03/24 11:02:31;;;;;;;0.00;0.00;;;15.00;99.90;;;;;;5052268;28;20203;-58
2023/03/24 11:05:01;;;;;;;0.00;0.00;;;15.00;99.90;;;;;;5052602;28;20256;-58
2023/03/24 11:07:41;;;;;;;0.00;0.00;;;15.10;99.90;;;;;;5052306;28;20531;-58
2023/03/24 11:10:17;;;;;;;0.00;0.00;;;15.30;99.90;;;;;;5052120;28;20220;-58
2023/03/24 11:13:01;;;;;;;0.00;0.00;;;15.50;99.90;;;;;;5052200;28;20636;-58
2023/03/24 11:15:32;;;;;;;0.00;0.00;;;15.60;99.90;;;;;;5052224;28;20182;-58
2023/03/24 11:18:10;;;;;;;0.00;0.00;;;15.70;99.90;;;;;;5052151;28;20256;-58
2023/03/24 11:20:50;;;;;;;0.00;0.00;;;15.70;99.90;;;;;;5052058;28;20542;-58
2023/03/24 11:23:18;;;;;;;0.00;0.00;;;15.60;99.90;;;;;;5051971;28;20252;-58
2023/03/24 11:26:12;;;;;;;0.00;0.00;;;15.60;99.90;;;;;;5051894;28;20577;-58
2023/03/24 11:28:41;;;;;;;0.00;0.00;;;15.70;99.90;;;;;;5048886;28;20651;-58
2023/03/24 11:31:10;;;;;;;0.00;0.00;;;15.70;99.90;;;;;;5051541;28;20271;-58
2023/03/24 11:33:56;;;;;;;0.00;0.00;;;15.80;99.90;;;;;;5051884;28;20177;-58
2023/03/24 11:36:29;;;;;;;0.10;0.10;;;15.80;99.90;;;;;;5051920;28;20173;-58
2023/03/24 11:39:17;;;;;;;0.00;0.00;;;15.90;99.90;;;;;;5051109;28;20640;-58
2023/03/24 11:42:08;;;;;;;0.00;0.00;;;15.80;99.90;;;;;;5051700;28;20181;-58
2023/03/24 11:44:50;;;;;;;0.00;0.00;;;15.80;99.90;;;;;;5051767;28;20192;-58
2023/03/24 11:47:31;;;;;;;0.00;0.00;;;15.80;99.90;;;;;;5051391;28;20512;-58
2023/03/24 11:50:17;;;;;;;0.00;0.00;;;15.90;99.90;;;;;;5051572;28;20205;-58
2023/03/24 11:52:55;;;;;;;0.00;0.00;;;15.80;99.90;;;;;;5051563;28;20204;-58
2023/03/24 11:55:49;;;;;;;0.00;0.00;;;15.80;99.90;;;;;;5051550;28;20192;-58
2023/03/24 11:58:35;;;;;;;0.00;0.00;;;15.80;99.90;;;;;;5051083;28;20213;-58
2023/03/24 12:01:06;;;;;;;0.00;0.00;;;15.80;99.90;;;;;;5051354;28;20170;-58
2023/03/24 12:03:45;;;;;;;0.00;0.00;;;15.80;99.90;;;;;;5051485;28;20269;-58
2023/03/24 12:06:40;;;;;;;0.00;0.00;;;15.80;99.90;;;;;;5051295;28;20624;-58
2023/03/24 12:09:33;;;;;;;0.00;0.00;;;15.80;99.90;;;;;;5051137;28;20177;-58
2023/03/24 12:12:24;;;;;;;0.00;0.00;;;15.80;99.90;;;;;;5051283;28;20193;-58
2023/03/24 12:15:11;;;;;;;0.00;0.00;;;15.70;99.90;;;;;;5051316;28;20181;-58
2023/03/24 12:17:54;;;;;;;0.00;0.00;;;15.10;99.90;;;;;;5051301;28;20571;-58
2023/03/24 12:20:45;;;;;;;0.00;0.00;;;14.60;99.90;;;;;;5051176;28;20600;-58
2023/03/24 12:23:19;;;;;;;0.00;0.00;;;13.80;99.90;;;;;;5051021;28;20231;-58
2023/03/24 12:26:22;;;;;;;0.00;0.00;;;13.40;99.90;;;;;;5051139;28;21143;-58
2023/03/24 12:29:01;;;;;;;0.00;0.00;;;13.00;99.90;;;;;;5049312;28;20189;-58
2023/03/24 12:31:42;;;;;;;0.00;0.00;;;12.70;99.90;;;;;;5051026;28;20303;-58
2023/03/24 12:34:35;;;;;;;0.00;0.00;;;12.50;99.90;;;;;;5050900;28;20185;-58
2023/03/24 12:37:23;;;;;;;0.00;0.00;;;12.30;99.90;;;;;;5051074;28;20170;-58
2023/03/24 12:40:11;;;;;;;0.00;0.00;;;12.10;99.90;;;;;;5051020;28;20177;-58
2023/03/24 12:42:43;;;;;;;0.00;0.00;;;12.10;99.90;;;;;;5051105;28;20204;-58
2023/03/24 12:45:26;;;;;;;0.00;0.00;;;12.10;99.90;;;;;;5050955;28;20640;-58
2023/03/24 12:48:14;;;;;;;0.00;0.00;;;12.00;99.90;;;;;;5050992;28;20173;-58
2023/03/24 12:51:11;;;;;;;0.00;0.00;;;12.00;99.90;;;;;;5051043;28;20205;-58
2023/03/24 12:54:04;;;;;;;0.00;0.00;;;11.90;99.90;;;;;;5055196;28;20264;-58
2023/03/24 12:56:35;;;;;;;0.00;0.00;;;11.80;99.90;;;;;;5055145;28;20546;-58
2023/03/24 12:59:08;;;;;;;0.00;0.00;;;11.80;99.90;;;;;;5054848;28;20177;-58
2023/03/24 13:01:42;;;;;;;0.00;0.00;;;11.70;99.90;;;;;;5055154;28;20173;-58
2023/03/24 13:04:20;;;;;;;0.00;0.00;;;11.70;99.90;;;;;;5054772;28;20535;-58
2023/03/24 13:06:53;;;;;;;0.00;0.00;;;11.70;99.90;;;;;;5054655;28;20698;-58
2023/03/24 13:09:42;;;;;;;0.00;0.00;;;11.60;99.90;;;;;;5054598;28;20174;-58
2023/03/24 13:12:31;;;;;;;0.00;0.00;;;11.60;99.90;;;;;;5054604;28;20189;-58
2023/03/24 13:15:02;;;;;;;0.00;0.00;;;11.50;99.90;;;;;;5054559;28;20181;-58
2023/03/24 13:17:39;;;;;;;0.00;0.00;;;11.50;99.90;;;;;;5054594;28;20173;-58